sensor_id;sensor_type;location;lat;lon;timestamp;pressure;altitude;pressure_sealevel;temperature;humidity
37304;BME280;23188;51.188;16.374;2023-02-19T00:00:16;100030.95;;;7.96;100.00
37304;BME280;23188;51.188;16.374;2023-02-19T00:04:38;100030.80;;;8.05;100.00
37304;BME280;23188;51.188;16.374;2023-02-19T00:08:39;100026.83;;;8.13;100.00
37304;BME280;23188;51.188;16.374;2023-02-19T00:12:41;100032.20;;;8.20;100.00
37304;BME280;23188;51.188;16.374;2023-02-19T00:16:43;100025.17;;;8.17;100.00
37304;BME280;23188;51.188;16.374;2023-02-19T00:20:45;100013.09;;;8.18;100.00
37304;BME280;23188;51.188;16.374;2023-02-19T00:24:48;100009.88;;;8.18;100.00
37304;BME280;23188;51.188;16.374;2023-02-19T00:28:51;100019.16;;;8.05;100.00
37304;BME280;23188;51.188;16.374;2023-02-19T00:32:54;100025.23;;;7.95;100.00
37304;BME280;23188;51.188;16.374;2023-02-19T00:36:55;100028.54;;;7.88;100.00
37304;BME280;23188;51.188;16.374;2023-02-19T00:40:58;100023.48;;;7.78;100.00
37304;BME280;23188;51.188;16.374;2023-02-19T00:45:01;100020.08;;;7.79;100.00
37304;BME280;23188;51.188;16.374;2023-02-19T00:49:04;100017.71;;;7.72;100.00
37304;BME280;23188;51.188;16.374;2023-02-19T00:53:06;100008.98;;;7.71;100.00
37304;BME280;23188;51.188;16.374;2023-02-19T00:57:08;100010.52;;;7.62;100.00
37304;BME280;23188;51.188;16.374;2023-02-19T01:01:10;100003.58;;;7.63;100.00
37304;BME280;23188;51.188;16.374;2023-02-19T01:05:13;100003.13;;;7.62;100.00
37304;BME280;23188;51.188;16.374;2023-02-19T01:09:15;100002.80;;;7.56;100.00
37304;BME280;23188;51.188;16.374;2023-02-19T01:13:17;100000.95;;;7.60;100.00
37304;BME280;23188;51.188;16.374;2023-02-19T01:17:20;99988.27;;;7.67;100.00
37304;BME280;23188;51.188;16.374;2023-02-19T01:21:24;99979.55;;;7.77;100.00
37304;BME280;23188;51.188;16.374;2023-02-19T01:25:27;99976.35;;;7.85;100.00
37304;BME280;23188;51.188;16.374;2023-02-19T01:29:30;99974.35;;;7.85;100.00
37304;BME280;23188;51.188;16.374;2023-02-19T01:33:33;99966.03;;;7.88;100.00
37304;BME280;23188;51.188;16.374;2023-02-19T01:37:35;99960.13;;;7.85;100.00
37304;BME280;23188;51.188;16.374;2023-02-19T01:41:41;99954.39;;;7.78;100.00
37304;BME280;23188;51.188;16.374;2023-02-19T01:45:44;99941.92;;;7.78;100.00
37304;BME280;23188;51.188;16.374;2023-02-19T01:49:55;99930.25;;;7.78;100.00
37304;BME280;23188;51.188;16.374;2023-02-19T01:54:00;99917.45;;;7.81;100.00
37304;BME280;23188;51.188;16.374;2023-02-19T01:58:03;99913.86;;;7.80;100.00
37304;BME280;23188;51.188;16.374;2023-02-19T02:02:05;99911.11;;;7.79;100.00
37304;BME280;23188;51.188;16.374;2023-02-19T02:10:33;99902.48;;;7.93;100.00
37304;BME280;23188;51.188;16.374;2023-02-19T02:14:39;99905.29;;;8.02;100.00
37304;BME280;23188;51.188;16.374;2023-02-19T02:23:05;99887.80;;;8.09;100.00
37304;BME280;23188;51.188;16.374;2023-02-19T02:31:22;99890.83;;;8.00;100.00
37304;BME280;23188;51.188;16.374;2023-02-19T02:35:50;99889.49;;;7.92;100.00
37304;BME280;23188;51.188;16.374;2023-02-19T02:39:54;99884.88;;;7.90;100.00
37304;BME280;23188;51.188;16.374;2023-02-19T02:43:58;99879.33;;;7.67;100.00
37304;BME280;23188;51.188;16.374;2023-02-19T02:52:12;99881.92;;;7.56;100.00
37304;BME280;23188;51.188;16.374;2023-02-19T02:56:38;99870.04;;;7.55;100.00
37304;BME280;23188;51.188;16.374;2023-02-19T03:00:43;99860.28;;;7.53;100.00
37304;BME280;23188;51.188;16.374;2023-02-19T03:05:16;99857.27;;;7.51;100.00
37304;BME280;23188;51.188;16.374;2023-02-19T03:09:41;99853.35;;;7.54;100.00
37304;BME280;23188;51.188;16.374;2023-02-19T03:13:43;99838.77;;;7.60;100.00
37304;BME280;23188;51.188;16.374;2023-02-19T03:18:06;99822.92;;;7.71;100.00
37304;BME280;23188;51.188;16.374;2023-02-19T03:22:33;99825.11;;;7.82;100.00
37304;BME280;23188;51.188;16.374;2023-02-19T03:26:38;99833.77;;;7.84;100.00
37304;BME280;23188;51.188;16.374;2023-02-19T03:30:46;99833.67;;;7.90;100.00
37304;BME280;23188;51.188;16.374;2023-02-19T03:34:54;99838.87;;;7.96;100.00
37304;BME280;23188;51.188;16.374;2023-02-19T03:39:02;99842.35;;;7.85;100.00
37304;BME280;23188;51.188;16.374;2023-02-19T03:43:17;99838.92;;;7.76;100.00
37304;BME280;23188;51.188;16.374;2023-02-19T03:47:30;99837.98;;;7.77;100.00
37304;BME280;23188;51.188;16.374;2023-02-19T03:51:44;99840.27;;;7.75;100.00
37304;BME280;23188;51.188;16.374;2023-02-19T03:56:10;99836.97;;;7.77;100.00
37304;BME280;23188;51.188;16.374;2023-02-19T04:00:29;99828.42;;;7.73;100.00
37304;BME280;23188;51.188;16.374;2023-02-19T04:04:44;99828.80;;;7.71;100.00
37304;BME280;23188;51.188;16.374;2023-02-19T04:08:53;99830.67;;;7.71;100.00
37304;BME280;23188;51.188;16.374;2023-02-19T04:13:03;99829.70;;;7.72;100.00
37304;BME280;23188;51.188;16.374;2023-02-19T04:17:33;99823.28;;;7.74;100.00
37304;BME280;23188;51.188;16.374;2023-02-19T04:21:37;99814.98;;;7.80;100.00
37304;BME280;23188;51.188;16.374;2023-02-19T04:25:43;99813.46;;;7.77;100.00
37304;BME280;23188;51.188;16.374;2023-02-19T04:29:46;99814.52;;;7.82;100.00
37304;BME280;23188;51.188;16.374;2023-02-19T04:33:48;99812.94;;;7.82;100.00
37304;BME280;23188;51.188;16.374;2023-02-19T04:37:50;99814.10;;;7.78;100.00
37304;BME280;23188;51.188;16.374;2023-02-19T04:41:52;99809.68;;;7.80;100.00
37304;BME280;23188;51.188;16.374;2023-02-19T04:45:58;99807.41;;;7.90;100.00
37304;BME280;23188;51.188;16.374;2023-02-19T04:50:02;99806.96;;;7.95;100.00
37304;BME280;23188;51.188;16.374;2023-02-19T04:54:04;99807.61;;;7.96;100.00
37304;BME280;23188;51.188;16.374;2023-02-19T04:58:07;99799.21;;;7.86;100.00
37304;BME280;23188;51.188;16.374;2023-02-19T05:02:10;99804.14;;;7.77;100.00
37304;BME280;23188;51.188;16.374;2023-02-19T05:06:13;99800.48;;;7.74;100.00
37304;BME280;23188;51.188;16.374;2023-02-19T05:10:15;99790.41;;;7.67;100.00
37304;BME280;23188;51.188;16.374;2023-02-19T05:14:17;99789.85;;;7.65;100.00
37304;BME280;23188;51.188;16.374;2023-02-19T05:18:19;99781.32;;;7.64;100.00
37304;BME280;23188;51.188;16.374;2023-02-19T05:22:21;99774.80;;;7.61;100.00
37304;BME280;23188;51.188;16.374;2023-02-19T05:26:23;99775.06;;;7.60;100.00
37304;BME280;23188;51.188;16.374;2023-02-19T05:30:25;99770.14;;;7.62;100.00
37304;BME280;23188;51.188;16.374;2023-02-19T05:34:27;99776.49;;;7.57;100.00
37304;BME280;23188;51.188;16.374;2023-02-19T05:38:29;99772.83;;;7.59;100.00
37304;BME280;23188;51.188;16.374;2023-02-19T05:42:30;99768.80;;;7.57;100.00
37304;BME280;23188;51.188;16.374;2023-02-19T05:46:32;99767.94;;;7.58;100.00
37304;BME280;23188;51.188;16.374;2023-02-19T05:50:35;99779.12;;;7.55;100.00
37304;BME280;23188;51.188;16.374;2023-02-19T05:54:40;99776.12;;;7.55;100.00
37304;BME280;23188;51.188;16.374;2023-02-19T05:58:43;99777.56;;;7.62;100.00
37304;BME280;23188;51.188;16.374;2023-02-19T06:02:46;99773.94;;;7.63;100.00
37304;BME280;23188;51.188;16.374;2023-02-19T06:06:49;99772.95;;;7.67;100.00
37304;BME280;23188;51.188;16.374;2023-02-19T06:10:51;99773.39;;;7.73;100.00
37304;BME280;23188;51.188;16.374;2023-02-19T06:14:53;99775.19;;;7.72;100.00
37304;BME280;23188;51.188;16.374;2023-02-19T06:18:56;99775.26;;;7.76;100.00
37304;BME280;23188;51.188;16.374;2023-02-19T06:22:58;99780.08;;;7.73;100.00
37304;BME280;23188;51.188;16.374;2023-02-19T06:27:01;99792.83;;;7.70;100.00
37304;BME280;23188;51.188;16.374;2023-02-19T06:31:07;99796.95;;;7.76;100.00
37304;BME280;23188;51.188;16.374;2023-02-19T06:35:09;99801.98;;;7.77;100.00
37304;BME280;23188;51.188;16.374;2023-02-19T06:39:12;99802.98;;;7.71;100.00
37304;BME280;23188;51.188;16.374;2023-02-19T06:43:14;99800.67;;;7.71;100.00
37304;BME280;23188;51.188;16.374;2023-02-19T06:47:16;99807.70;;;7.70;100.00
37304;BME280;23188;51.188;16.374;2023-02-19T06:51:18;99818.10;;;7.65;100.00
37304;BME280;23188;51.188;16.374;2023-02-19T06:55:24;99830.23;;;7.56;100.00
37304;BME280;23188;51.188;16.374;2023-02-19T06:59:27;99829.05;;;7.60;100.00
37304;BME280;23188;51.188;16.374;2023-02-19T07:03:29;99828.79;;;7.61;100.00
37304;BME280;23188;51.188;16.374;2023-02-19T07:07:31;99846.44;;;7.50;100.00
37304;BME280;23188;51.188;16.374;2023-02-19T07:11:34;99859.55;;;7.34;100.00
37304;BME280;23188;51.188;16.374;2023-02-19T07:15:37;99870.27;;;7.18;100.00
37304;BME280;23188;51.188;16.374;2023-02-19T07:19:39;99882.33;;;7.00;100.00
37304;BME280;23188;51.188;16.374;2023-02-19T08:20:56;100016.16;;;4.58;100.00
37304;BME280;23188;51.188;16.374;2023-02-19T08:25:21;100013.27;;;4.59;100.00
37304;BME280;23188;51.188;16.374;2023-02-19T08:29:50;100019.15;;;4.48;100.00
37304;BME280;23188;51.188;16.374;2023-02-19T08:34:11;100030.50;;;4.44;100.00
37304;BME280;23188;51.188;16.374;2023-02-19T08:38:18;100039.27;;;4.41;100.00
37304;BME280;23188;51.188;16.374;2023-02-19T08:42:23;100039.58;;;4.45;100.00
37304;BME280;23188;51.188;16.374;2023-02-19T08:46:25;100055.81;;;4.50;100.00
37304;BME280;23188;51.188;16.374;2023-02-19T08:50:27;100057.43;;;4.58;100.00
37304;BME280;23188;51.188;16.374;2023-02-19T08:54:29;100064.81;;;4.72;100.00
37304;BME280;23188;51.188;16.374;2023-02-19T08:58:31;100071.30;;;4.78;100.00
37304;BME280;23188;51.188;16.374;2023-02-19T09:02:34;100074.45;;;4.72;100.00
37304;BME280;23188;51.188;16.374;2023-02-19T09:06:36;100080.84;;;4.83;100.00
37304;BME280;23188;51.188;16.374;2023-02-19T09:10:40;100085.90;;;4.87;100.00
37304;BME280;23188;51.188;16.374;2023-02-19T09:14:42;100098.42;;;4.83;100.00
37304;BME280;23188;51.188;16.374;2023-02-19T09:18:44;100102.41;;;4.87;100.00
37304;BME280;23188;51.188;16.374;2023-02-19T09:22:46;100109.41;;;4.90;100.00
37304;BME280;23188;51.188;16.374;2023-02-19T09:26:48;100115.08;;;4.86;100.00
37304;BME280;23188;51.188;16.374;2023-02-19T09:30:50;100127.00;;;4.78;100.00
37304;BME280;23188;51.188;16.374;2023-02-19T09:34:52;100137.90;;;4.81;100.00
37304;BME280;23188;51.188;16.374;2023-02-19T09:38:54;100135.40;;;4.93;100.00
37304;BME280;23188;51.188;16.374;2023-02-19T09:42:55;100147.16;;;4.99;100.00
37304;BME280;23188;51.188;16.374;2023-02-19T09:46:59;100143.95;;;5.12;100.00
37304;BME280;23188;51.188;16.374;2023-02-19T09:51:01;100152.22;;;5.03;100.00
37304;BME280;23188;51.188;16.374;2023-02-19T09:55:55;100155.11;;;5.08;100.00
37304;BME280;23188;51.188;16.374;2023-02-19T09:59:52;100164.69;;;5.21;100.00
37304;BME280;23188;51.188;16.374;2023-02-19T10:03:59;100179.24;;;5.24;100.00
37304;BME280;23188;51.188;16.374;2023-02-19T10:08:03;100188.57;;;5.30;100.00
37304;BME280;23188;51.188;16.374;2023-02-19T10:12:14;100201.85;;;5.31;100.00
37304;BME280;23188;51.188;16.374;2023-02-19T10:16:20;100214.83;;;5.29;100.00
37304;BME280;23188;51.188;16.374;2023-02-19T10:20:25;100222.04;;;5.11;100.00
37304;BME280;23188;51.188;16.374;2023-02-19T10:24:28;100228.33;;;4.97;100.00
37304;BME280;23188;51.188;16.374;2023-02-19T10:28:34;100240.30;;;4.96;100.00
37304;BME280;23188;51.188;16.374;2023-02-19T10:32:37;100234.89;;;4.96;100.00
37304;BME280;23188;51.188;16.374;2023-02-19T10:36:43;100236.21;;;5.10;100.00
37304;BME280;23188;51.188;16.374;2023-02-19T10:40:47;100243.14;;;5.20;100.00
37304;BME280;23188;51.188;16.374;2023-02-19T10:44:58;100244.78;;;5.37;100.00
37304;BME280;23188;51.188;16.374;2023-02-19T10:49:16;100253.45;;;5.48;100.00
37304;BME280;23188;51.188;16.374;2023-02-19T10:53:21;100266.15;;;5.62;100.00
37304;BME280;23188;51.188;16.374;2023-02-19T10:57:27;100267.71;;;5.65;100.00
37304;BME280;23188;51.188;16.374;2023-02-19T11:01:34;100272.77;;;5.66;100.00
37304;BME280;23188;51.188;16.374;2023-02-19T11:05:36;100273.95;;;5.58;100.00
37304;BME280;23188;51.188;16.374;2023-02-19T11:09:42;100269.70;;;5.64;100.00
37304;BME280;23188;51.188;16.374;2023-02-19T11:13:46;100270.52;;;5.76;100.00
37304;BME280;23188;51.188;16.374;2023-02-19T11:17:56;100270.11;;;5.83;99.97
37304;BME280;23188;51.188;16.374;2023-02-19T11:21:59;100272.41;;;5.89;100.00
37304;BME280;23188;51.188;16.374;2023-02-19T11:26:05;100272.99;;;5.79;100.00
37304;BME280;23188;51.188;16.374;2023-02-19T11:30:43;100277.55;;;5.68;99.59
37304;BME280;23188;51.188;16.374;2023-02-19T11:34:46;100285.48;;;5.68;99.28
37304;BME280;23188;51.188;16.374;2023-02-19T11:38:48;100290.58;;;5.59;97.24
37304;BME280;23188;51.188;16.374;2023-02-19T11:42:57;100295.49;;;5.62;99.30
37304;BME280;23188;51.188;16.374;2023-02-19T11:51:37;100301.55;;;5.64;94.19
37304;BME280;23188;51.188;16.374;2023-02-19T11:55:51;100305.33;;;5.48;94.51
37304;BME280;23188;51.188;16.374;2023-02-19T12:00:22;100309.37;;;5.66;97.70
37304;BME280;23188;51.188;16.374;2023-02-19T12:13:01;100319.77;;;6.12;92.12
37304;BME280;23188;51.188;16.374;2023-02-19T12:38:42;100358.55;;;6.17;86.51
37304;BME280;23188;51.188;16.374;2023-02-19T12:46:56;100355.17;;;6.40;86.18
37304;BME280;23188;51.188;16.374;2023-02-19T12:51:05;100348.63;;;6.49;86.12
37304;BME280;23188;51.188;16.374;2023-02-19T12:55:30;100354.02;;;6.56;83.98
37304;BME280;23188;51.188;16.374;2023-02-19T12:59:40;100367.48;;;6.66;84.92
37304;BME280;23188;51.188;16.374;2023-02-19T13:03:52;100366.97;;;6.49;81.87
37304;BME280;23188;51.188;16.374;2023-02-19T13:08:10;100378.20;;;6.47;82.22
37304;BME280;23188;51.188;16.374;2023-02-19T13:12:19;100370.75;;;6.48;79.87
37304;BME280;23188;51.188;16.374;2023-02-19T13:16:22;100379.96;;;6.44;78.52
37304;BME280;23188;51.188;16.374;2023-02-19T13:20:34;100384.00;;;6.41;79.30
37304;BME280;23188;51.188;16.374;2023-02-19T13:24:40;100375.52;;;6.36;78.97
37304;BME280;23188;51.188;16.374;2023-02-19T13:28:48;100386.73;;;6.28;79.44
37304;BME280;23188;51.188;16.374;2023-02-19T13:33:04;100383.02;;;6.32;78.98
37304;BME280;23188;51.188;16.374;2023-02-19T13:37:13;100375.75;;;6.32;77.86
37304;BME280;23188;51.188;16.374;2023-02-19T13:41:25;100382.02;;;6.34;78.75
37304;BME280;23188;51.188;16.374;2023-02-19T13:45:34;100388.61;;;6.55;81.94
37304;BME280;23188;51.188;16.374;2023-02-19T13:49:39;100384.55;;;6.69;80.13
37304;BME280;23188;51.188;16.374;2023-02-19T13:57:48;100393.95;;;6.63;77.09
37304;BME280;23188;51.188;16.374;2023-02-19T14:06:00;100416.65;;;6.43;77.96
37304;BME280;23188;51.188;16.374;2023-02-19T14:10:04;100420.58;;;6.45;78.95
37304;BME280;23188;51.188;16.374;2023-02-19T14:18:41;100422.33;;;6.54;76.08
37304;BME280;23188;51.188;16.374;2023-02-19T14:26:58;100447.51;;;6.57;78.00
37304;BME280;23188;51.188;16.374;2023-02-19T14:31:26;100451.66;;;6.50;77.79
37304;BME280;23188;51.188;16.374;2023-02-19T14:35:39;100467.80;;;6.33;77.03
37304;BME280;23188;51.188;16.374;2023-02-19T14:39:43;100472.23;;;6.33;77.76
37304;BME280;23188;51.188;16.374;2023-02-19T14:43:48;100478.29;;;6.20;74.98
37304;BME280;23188;51.188;16.374;2023-02-19T14:47:52;100478.91;;;6.24;74.67
37304;BME280;23188;51.188;16.374;2023-02-19T14:52:00;100480.89;;;6.35;74.29
37304;BME280;23188;51.188;16.374;2023-02-19T14:56:06;100485.66;;;6.23;72.63
37304;BME280;23188;51.188;16.374;2023-02-19T15:00:27;100485.48;;;6.03;72.72
37304;BME280;23188;51.188;16.374;2023-02-19T15:04:34;100495.66;;;5.85;73.68
37304;BME280;23188;51.188;16.374;2023-02-19T15:08:40;100492.05;;;5.80;74.21
37304;BME280;23188;51.188;16.374;2023-02-19T15:12:51;100505.70;;;5.84;75.24
37304;BME280;23188;51.188;16.374;2023-02-19T15:16:58;100520.86;;;5.72;74.31
37304;BME280;23188;51.188;16.374;2023-02-19T15:21:02;100522.39;;;5.76;75.17
37304;BME280;23188;51.188;16.374;2023-02-19T15:25:06;100518.17;;;5.60;74.70
37304;BME280;23188;51.188;16.374;2023-02-19T15:29:10;100529.31;;;5.56;75.35
37304;BME280;23188;51.188;16.374;2023-02-19T15:33:18;100526.80;;;5.54;75.06
37304;BME280;23188;51.188;16.374;2023-02-19T15:37:21;100535.66;;;5.46;74.68
37304;BME280;23188;51.188;16.374;2023-02-19T15:41:25;100540.33;;;5.38;78.82
37304;BME280;23188;51.188;16.374;2023-02-19T15:45:39;100540.64;;;5.26;78.31
37304;BME280;23188;51.188;16.374;2023-02-19T15:49:48;100555.05;;;5.16;77.43
37304;BME280;23188;51.188;16.374;2023-02-19T15:53:55;100561.87;;;5.08;77.68
37304;BME280;23188;51.188;16.374;2023-02-19T15:58:26;100570.77;;;5.03;78.09
37304;BME280;23188;51.188;16.374;2023-02-19T16:02:31;100576.42;;;4.98;77.72
37304;BME280;23188;51.188;16.374;2023-02-19T16:06:50;100584.90;;;4.91;78.32
37304;BME280;23188;51.188;16.374;2023-02-19T16:10:54;100588.31;;;4.83;78.92
37304;BME280;23188;51.188;16.374;2023-02-19T16:14:56;100594.96;;;4.69;78.85
37304;BME280;23188;51.188;16.374;2023-02-19T16:18:58;100596.92;;;4.70;79.67
37304;BME280;23188;51.188;16.374;2023-02-19T16:23:02;100603.46;;;4.62;79.70
37304;BME280;23188;51.188;16.374;2023-02-19T16:27:04;100608.54;;;4.55;80.44
37304;BME280;23188;51.188;16.374;2023-02-19T16:31:12;100622.40;;;4.49;80.67
37304;BME280;23188;51.188;16.374;2023-02-19T16:35:37;100630.45;;;4.42;81.60
37304;BME280;23188;51.188;16.374;2023-02-19T16:39:42;100626.85;;;4.40;82.43
37304;BME280;23188;51.188;16.374;2023-02-19T16:43:44;100629.52;;;4.36;83.47
37304;BME280;23188;51.188;16.374;2023-02-19T16:47:47;100635.07;;;4.34;83.01
37304;BME280;23188;51.188;16.374;2023-02-19T16:51:52;100635.86;;;4.29;82.58
37304;BME280;23188;51.188;16.374;2023-02-19T16:55:55;100645.38;;;4.25;82.61
37304;BME280;23188;51.188;16.374;2023-02-19T16:59:57;100661.25;;;4.16;84.95
37304;BME280;23188;51.188;16.374;2023-02-19T17:04:01;100674.35;;;3.88;87.97
37304;BME280;23188;51.188;16.374;2023-02-19T17:12:22;100687.22;;;3.52;91.29
37304;BME280;23188;51.188;16.374;2023-02-19T17:16:27;100690.63;;;3.43;92.31
37304;BME280;23188;51.188;16.374;2023-02-19T17:20:34;100690.93;;;3.39;92.76
37304;BME280;23188;51.188;16.374;2023-02-19T17:24:37;100693.24;;;3.39;93.20
37304;BME280;23188;51.188;16.374;2023-02-19T17:28:41;100692.61;;;3.38;93.76
37304;BME280;23188;51.188;16.374;2023-02-19T17:32:44;100704.23;;;3.32;94.65
37304;BME280;23188;51.188;16.374;2023-02-19T17:36:47;100708.96;;;3.37;94.99
37304;BME280;23188;51.188;16.374;2023-02-19T17:40:49;100718.36;;;3.38;94.88
37304;BME280;23188;51.188;16.374;2023-02-19T17:44:51;100725.53;;;3.46;93.77
37304;BME280;23188;51.188;16.374;2023-02-19T17:48:54;100730.63;;;3.50;93.12
37304;BME280;23188;51.188;16.374;2023-02-19T17:52:58;100735.14;;;3.59;92.44
37304;BME280;23188;51.188;16.374;2023-02-19T17:57:01;100740.39;;;3.63;92.25
37304;BME280;23188;51.188;16.374;2023-02-19T18:01:04;100744.54;;;3.72;92.34
37304;BME280;23188;51.188;16.374;2023-02-19T18:05:06;100744.77;;;3.75;92.26
37304;BME280;23188;51.188;16.374;2023-02-19T18:09:11;100749.76;;;3.73;92.10
37304;BME280;23188;51.188;16.374;2023-02-19T18:13:15;100751.45;;;3.75;92.04
37304;BME280;23188;51.188;16.374;2023-02-19T18:17:19;100756.19;;;3.63;92.68
37304;BME280;23188;51.188;16.374;2023-02-19T18:21:23;100760.69;;;3.48;93.32
37304;BME280;23188;51.188;16.374;2023-02-19T18:25:26;100765.71;;;3.38;93.51
37304;BME280;23188;51.188;16.374;2023-02-19T18:29:28;100775.36;;;3.34;93.59
37304;BME280;23188;51.188;16.374;2023-02-19T18:33:32;100777.31;;;3.29;93.42
37304;BME280;23188;51.188;16.374;2023-02-19T18:37:35;100784.41;;;3.27;93.71
37304;BME280;23188;51.188;16.374;2023-02-19T18:41:36;100796.14;;;3.27;93.96
37304;BME280;23188;51.188;16.374;2023-02-19T18:45:39;100798.14;;;3.21;94.27
37304;BME280;23188;51.188;16.374;2023-02-19T18:49:48;100802.09;;;3.19;94.11
37304;BME280;23188;51.188;16.374;2023-02-19T18:53:51;100802.59;;;3.20;94.21
37304;BME280;23188;51.188;16.374;2023-02-19T18:57:54;100811.82;;;3.17;94.06
37304;BME280;23188;51.188;16.374;2023-02-19T19:01:57;100811.36;;;3.07;94.33
37304;BME280;23188;51.188;16.374;2023-02-19T19:05:59;100806.55;;;3.00;94.86
37304;BME280;23188;51.188;16.374;2023-02-19T19:10:03;100800.16;;;2.94;95.28
37304;BME280;23188;51.188;16.374;2023-02-19T19:14:08;100799.02;;;2.88;95.38
37304;BME280;23188;51.188;16.374;2023-02-19T19:18:11;100799.54;;;2.88;95.37
37304;BME280;23188;51.188;16.374;2023-02-19T19:22:13;100803.91;;;2.88;94.93
37304;BME280;23188;51.188;16.374;2023-02-19T19:26:17;100815.89;;;2.87;94.93
37304;BME280;23188;51.188;16.374;2023-02-19T19:30:21;100820.09;;;2.87;95.31
37304;BME280;23188;51.188;16.374;2023-02-19T19:34:23;100823.98;;;2.85;95.45
37304;BME280;23188;51.188;16.374;2023-02-19T19:38:26;100830.20;;;2.83;94.90
37304;BME280;23188;51.188;16.374;2023-02-19T19:42:30;100829.63;;;2.85;94.30
37304;BME280;23188;51.188;16.374;2023-02-19T19:46:32;100830.49;;;2.84;94.62
37304;BME280;23188;51.188;16.374;2023-02-19T19:50:35;100828.84;;;2.82;94.17
37304;BME280;23188;51.188;16.374;2023-02-19T19:54:40;100835.09;;;2.79;93.98
37304;BME280;23188;51.188;16.374;2023-02-19T19:58:43;100833.05;;;2.73;94.70
37304;BME280;23188;51.188;16.374;2023-02-19T20:02:46;100837.98;;;2.68;94.99
37304;BME280;23188;51.188;16.374;2023-02-19T20:06:49;100843.02;;;2.65;95.27
37304;BME280;23188;51.188;16.374;2023-02-19T20:10:51;100843.95;;;2.59;95.79
37304;BME280;23188;51.188;16.374;2023-02-19T20:14:53;100844.30;;;2.59;95.82
37304;BME280;23188;51.188;16.374;2023-02-19T20:18:55;100836.86;;;2.57;96.11
37304;BME280;23188;51.188;16.374;2023-02-19T20:22:58;100841.80;;;2.56;95.89
37304;BME280;23188;51.188;16.374;2023-02-19T20:27:01;100845.48;;;2.55;95.66
37304;BME280;23188;51.188;16.374;2023-02-19T20:31:03;100847.41;;;2.55;95.49
37304;BME280;23188;51.188;16.374;2023-02-19T20:35:05;100849.92;;;2.59;95.81
37304;BME280;23188;51.188;16.374;2023-02-19T20:39:07;100851.04;;;2.57;95.65
37304;BME280;23188;51.188;16.374;2023-02-19T20:43:11;100858.86;;;2.54;95.57
37304;BME280;23188;51.188;16.374;2023-02-19T20:47:15;100868.91;;;2.43;96.16
37304;BME280;23188;51.188;16.374;2023-02-19T20:51:17;100871.73;;;2.37;96.96
37304;BME280;23188;51.188;16.374;2023-02-19T20:55:20;100882.34;;;2.35;96.94
37304;BME280;23188;51.188;16.374;2023-02-19T20:59:26;100898.89;;;2.42;96.27
37304;BME280;23188;51.188;16.374;2023-02-19T21:03:31;100905.45;;;2.49;96.20
37304;BME280;23188;51.188;16.374;2023-02-19T21:07:34;100911.61;;;2.53;94.95
37304;BME280;23188;51.188;16.374;2023-02-19T21:11:36;100903.39;;;2.62;94.29
37304;BME280;23188;51.188;16.374;2023-02-19T21:15:39;100903.34;;;2.68;93.71
37304;BME280;23188;51.188;16.374;2023-02-19T21:19:41;100904.33;;;2.69;93.30
37304;BME280;23188;51.188;16.374;2023-02-19T21:23:44;100915.77;;;2.73;92.95
37304;BME280;23188;51.188;16.374;2023-02-19T21:27:46;100914.30;;;2.74;93.00
37304;BME280;23188;51.188;16.374;2023-02-19T21:31:50;100919.49;;;2.71;92.65
37304;BME280;23188;51.188;16.374;2023-02-19T21:35:52;100921.89;;;2.72;92.92
37304;BME280;23188;51.188;16.374;2023-02-19T21:44:31;100923.66;;;2.58;93.00
37304;BME280;23188;51.188;16.374;2023-02-19T21:48:33;100930.20;;;2.52;92.93
37304;BME280;23188;51.188;16.374;2023-02-19T21:52:35;100937.89;;;2.42;92.88
37304;BME280;23188;51.188;16.374;2023-02-19T21:56:38;100946.97;;;2.38;93.37
37304;BME280;23188;51.188;16.374;2023-02-19T22:00:41;100957.02;;;2.37;93.54
37304;BME280;23188;51.188;16.374;2023-02-19T22:04:44;100960.50;;;2.32;93.55
37304;BME280;23188;51.188;16.374;2023-02-19T22:08:47;100968.80;;;2.30;93.71
37304;BME280;23188;51.188;16.374;2023-02-19T22:17:12;100971.23;;;2.31;94.27
37304;BME280;23188;51.188;16.374;2023-02-19T22:26:31;100971.98;;;2.29;93.83
37304;BME280;23188;51.188;16.374;2023-02-19T22:30:35;100963.50;;;2.27;93.94
37304;BME280;23188;51.188;16.374;2023-02-19T22:34:39;100958.77;;;2.27;94.01
37304;BME280;23188;51.188;16.374;2023-02-19T22:38:43;100954.00;;;2.23;94.49
37304;BME280;23188;51.188;16.374;2023-02-19T22:42:48;100953.67;;;2.27;95.46
37304;BME280;23188;51.188;16.374;2023-02-19T22:46:55;100954.41;;;2.31;95.81
37304;BME280;23188;51.188;16.374;2023-02-19T22:50:58;100956.70;;;2.36;96.19
37304;BME280;23188;51.188;16.374;2023-02-19T22:55:03;100955.25;;;2.42;95.98
37304;BME280;23188;51.188;16.374;2023-02-19T22:59:06;100951.55;;;2.43;95.24
37304;BME280;23188;51.188;16.374;2023-02-19T23:03:08;100955.38;;;2.43;95.36
37304;BME280;23188;51.188;16.374;2023-02-19T23:07:10;100952.95;;;2.38;95.25
37304;BME280;23188;51.188;16.374;2023-02-19T23:11:18;100945.62;;;2.42;95.32
37304;BME280;23188;51.188;16.374;2023-02-19T23:15:22;100947.70;;;2.42;95.38
37304;BME280;23188;51.188;16.374;2023-02-19T23:19:24;100950.73;;;2.41;95.36
37304;BME280;23188;51.188;16.374;2023-02-19T23:23:27;100952.46;;;2.37;95.69
37304;BME280;23188;51.188;16.374;2023-02-19T23:27:30;100944.10;;;2.35;96.28
37304;BME280;23188;51.188;16.374;2023-02-19T23:31:32;100933.06;;;2.31;96.97
37304;BME280;23188;51.188;16.374;2023-02-19T23:35:34;100920.55;;;2.34;97.35
37304;BME280;23188;51.188;16.374;2023-02-19T23:39:36;100918.07;;;2.39;96.88
37304;BME280;23188;51.188;16.374;2023-02-19T23:43:38;100908.48;;;2.47;96.45
37304;BME280;23188;51.188;16.374;2023-02-19T23:47:40;100906.94;;;2.60;95.89